sensor_id;sensor_type;location;lat;lon;timestamp;pressure;altitude;pressure_sealevel;temperature;humidity
30021;BME280;16861;52.294;7.760;2023-04-26T00:01:53;99977.53;;;6.61;60.70
30021;BME280;16861;52.294;7.760;2023-04-26T00:04:20;99975.84;;;6.60;60.84
30021;BME280;16861;52.294;7.760;2023-04-26T00:06:47;99975.94;;;6.57;60.93
30021;BME280;16861;52.294;7.760;2023-04-26T00:09:14;99981.25;;;6.55;60.94
30021;BME280;16861;52.294;7.760;2023-04-26T00:11:41;99986.56;;;6.54;60.99
30021;BME280;16861;52.294;7.760;2023-04-26T00:14:08;99977.94;;;6.50;61.12
30021;BME280;16861;52.294;7.760;2023-04-26T00:16:34;99978.91;;;6.47;61.12
30021;BME280;16861;52.294;7.760;2023-04-26T00:19:01;99979.88;;;6.45;61.20
30021;BME280;16861;52.294;7.760;2023-04-26T00:21:28;99973.03;;;6.41;61.08
30021;BME280;16861;52.294;7.760;2023-04-26T00:23:54;99976.59;;;6.39;61.01
30021;BME280;16861;52.294;7.760;2023-04-26T00:26:21;99978.41;;;6.37;61.44
30021;BME280;16861;52.294;7.760;2023-04-26T00:28:47;99985.44;;;6.35;61.37
30021;BME280;16861;52.294;7.760;2023-04-26T00:31:15;99984.66;;;6.33;61.23
30021;BME280;16861;52.294;7.760;2023-04-26T00:33:42;99987.38;;;6.30;61.53
30021;BME280;16861;52.294;7.760;2023-04-26T00:36:09;99988.28;;;6.29;61.38
30021;BME280;16861;52.294;7.760;2023-04-26T00:38:36;99981.41;;;6.27;61.80
30021;BME280;16861;52.294;7.760;2023-04-26T00:41:02;99978.84;;;6.25;61.70
30021;BME280;16861;52.294;7.760;2023-04-26T00:43:29;99978.84;;;6.25;61.68
30021;BME280;16861;52.294;7.760;2023-04-26T00:45:56;99980.66;;;6.23;61.71
30021;BME280;16861;52.294;7.760;2023-04-26T00:48:22;99979.00;;;6.20;61.67
30021;BME280;16861;52.294;7.760;2023-04-26T00:50:49;99967.81;;;6.17;61.80
30021;BME280;16861;52.294;7.760;2023-04-26T00:53:16;99972.22;;;6.15;62.00
30021;BME280;16861;52.294;7.760;2023-04-26T00:55:43;99964.44;;;6.13;62.01
30021;BME280;16861;52.294;7.760;2023-04-26T00:58:10;99970.63;;;6.10;62.05
30021;BME280;16861;52.294;7.760;2023-04-26T01:00:37;99976.72;;;6.11;61.99
30021;BME280;16861;52.294;7.760;2023-04-26T01:03:03;99970.75;;;6.07;61.93
30021;BME280;16861;52.294;7.760;2023-04-26T01:05:30;99968.19;;;6.06;61.96
30021;BME280;16861;52.294;7.760;2023-04-26T01:07:57;99976.06;;;6.04;62.05
30021;BME280;16861;52.294;7.760;2023-04-26T01:10:25;99974.38;;;6.03;62.11
30021;BME280;16861;52.294;7.760;2023-04-26T01:12:53;99969.16;;;6.02;62.22
30021;BME280;16861;52.294;7.760;2023-04-26T01:15:20;99977.06;;;6.00;62.14
30021;BME280;16861;52.294;7.760;2023-04-26T01:17:47;99976.19;;;5.99;62.35
30021;BME280;16861;52.294;7.760;2023-04-26T01:20:14;99984.88;;;6.00;62.55
30021;BME280;16861;52.294;7.760;2023-04-26T01:22:41;99976.25;;;5.98;62.32
30021;BME280;16861;52.294;7.760;2023-04-26T01:25:10;99972.84;;;5.96;62.43
30021;BME280;16861;52.294;7.760;2023-04-26T01:27:37;99971.97;;;5.95;62.59
30021;BME280;16861;52.294;7.760;2023-04-26T01:30:04;99977.28;;;5.94;62.31
30021;BME280;16861;52.294;7.760;2023-04-26T01:32:31;99977.31;;;5.92;62.24
30021;BME280;16861;52.294;7.760;2023-04-26T01:34:58;99978.28;;;5.90;62.56
30021;BME280;16861;52.294;7.760;2023-04-26T01:37:25;99974.84;;;5.87;62.45
30021;BME280;16861;52.294;7.760;2023-04-26T01:39:52;99974.03;;;5.87;62.40
30021;BME280;16861;52.294;7.760;2023-04-26T01:42:19;99974.13;;;5.84;62.54
30021;BME280;16861;52.294;7.760;2023-04-26T01:44:45;99981.09;;;5.83;62.64
30021;BME280;16861;52.294;7.760;2023-04-26T01:47:12;99967.22;;;5.81;62.81
30021;BME280;16861;52.294;7.760;2023-04-26T01:49:38;99966.41;;;5.79;62.76
30021;BME280;16861;52.294;7.760;2023-04-26T01:52:05;99970.84;;;5.77;62.98
30021;BME280;16861;52.294;7.760;2023-04-26T01:54:32;99968.28;;;5.76;62.81
30021;BME280;16861;52.294;7.760;2023-04-26T01:56:58;99970.03;;;5.75;63.03
30021;BME280;16861;52.294;7.760;2023-04-26T01:59:24;99970.09;;;5.73;62.92
30021;BME280;16861;52.294;7.760;2023-04-26T02:01:52;99977.09;;;5.73;63.18
30021;BME280;16861;52.294;7.760;2023-04-26T02:04:18;99968.34;;;5.74;62.98
30021;BME280;16861;52.294;7.760;2023-04-26T02:06:45;99969.25;;;5.73;62.92
30021;BME280;16861;52.294;7.760;2023-04-26T02:09:12;99976.16;;;5.74;62.93
30021;BME280;16861;52.294;7.760;2023-04-26T02:11:38;99977.03;;;5.74;62.98
30021;BME280;16861;52.294;7.760;2023-04-26T02:14:05;99977.09;;;5.73;62.90
30021;BME280;16861;52.294;7.760;2023-04-26T02:16:32;99971.03;;;5.71;62.83
30021;BME280;16861;52.294;7.760;2023-04-26T02:18:59;99979.75;;;5.71;62.96
30021;BME280;16861;52.294;7.760;2023-04-26T02:21:26;99971.97;;;5.70;63.17
30021;BME280;16861;52.294;7.760;2023-04-26T02:23:53;99969.38;;;5.68;63.11
30021;BME280;16861;52.294;7.760;2023-04-26T02:26:20;99982.50;;;5.67;63.24
30021;BME280;16861;52.294;7.760;2023-04-26T02:28:46;99974.75;;;5.65;63.56
30021;BME280;16861;52.294;7.760;2023-04-26T02:31:13;99976.47;;;5.65;63.31
30021;BME280;16861;52.294;7.760;2023-04-26T02:33:39;99980.84;;;5.64;63.32
30021;BME280;16861;52.294;7.760;2023-04-26T02:36:06;99979.13;;;5.63;63.32
30021;BME280;16861;52.294;7.760;2023-04-26T02:38:34;99971.31;;;5.63;63.43
30021;BME280;16861;52.294;7.760;2023-04-26T02:41:02;99979.13;;;5.63;63.33
30021;BME280;16861;52.294;7.760;2023-04-26T02:43:29;99980.88;;;5.63;63.52
30021;BME280;16861;52.294;7.760;2023-04-26T02:45:56;99976.56;;;5.61;63.21
30021;BME280;16861;52.294;7.760;2023-04-26T02:48:24;99977.50;;;5.60;63.36
30021;BME280;16861;52.294;7.760;2023-04-26T02:50:51;99982.75;;;5.59;63.17
30021;BME280;16861;52.294;7.760;2023-04-26T02:53:18;99981.06;;;5.58;63.33
30021;BME280;16861;52.294;7.760;2023-04-26T02:55:45;99976.75;;;5.57;63.38
30021;BME280;16861;52.294;7.760;2023-04-26T02:58:11;99982.00;;;5.55;63.39
30021;BME280;16861;52.294;7.760;2023-04-26T03:00:38;99982.06;;;5.54;63.36
30021;BME280;16861;52.294;7.760;2023-04-26T03:03:10;99987.31;;;5.52;63.40
30021;BME280;16861;52.294;7.760;2023-04-26T03:05:37;99989.94;;;5.52;63.61
30021;BME280;16861;52.294;7.760;2023-04-26T03:08:04;99982.09;;;5.52;63.64
30021;BME280;16861;52.294;7.760;2023-04-26T03:10:31;99970.00;;;5.50;63.66
30021;BME280;16861;52.294;7.760;2023-04-26T03:12:57;99970.88;;;5.50;63.82
30021;BME280;16861;52.294;7.760;2023-04-26T03:15:24;99978.75;;;5.48;63.61
30021;BME280;16861;52.294;7.760;2023-04-26T03:17:50;99980.53;;;5.46;63.75
30021;BME280;16861;52.294;7.760;2023-04-26T03:20:17;99985.81;;;5.45;63.81
30021;BME280;16861;52.294;7.760;2023-04-26T03:22:45;99980.66;;;5.43;63.55
30021;BME280;16861;52.294;7.760;2023-04-26T03:25:11;99976.31;;;5.42;63.78
30021;BME280;16861;52.294;7.760;2023-04-26T03:27:38;99979.88;;;5.40;63.78
30021;BME280;16861;52.294;7.760;2023-04-26T03:30:05;99971.22;;;5.39;63.92
30021;BME280;16861;52.294;7.760;2023-04-26T03:32:32;99976.47;;;5.38;63.78
30021;BME280;16861;52.294;7.760;2023-04-26T03:34:59;99969.53;;;5.37;63.82
30021;BME280;16861;52.294;7.760;2023-04-26T03:37:26;99972.25;;;5.33;63.82
30021;BME280;16861;52.294;7.760;2023-04-26T03:39:52;99969.69;;;5.32;63.75
30021;BME280;16861;52.294;7.760;2023-04-26T03:42:19;99968.03;;;5.29;63.87
30021;BME280;16861;52.294;7.760;2023-04-26T03:44:46;99970.69;;;5.28;63.92
30021;BME280;16861;52.294;7.760;2023-04-26T03:47:12;99965.50;;;5.26;64.02
30021;BME280;16861;52.294;7.760;2023-04-26T03:49:41;99976.00;;;5.25;64.10
30021;BME280;16861;52.294;7.760;2023-04-26T03:52:08;99971.69;;;5.24;64.22
30021;BME280;16861;52.294;7.760;2023-04-26T03:54:34;99971.72;;;5.22;64.34
30021;BME280;16861;52.294;7.760;2023-04-26T03:57:01;99970.03;;;5.21;64.24
30021;BME280;16861;52.294;7.760;2023-04-26T03:59:28;99962.25;;;5.19;64.38
30021;BME280;16861;52.294;7.760;2023-04-26T04:01:55;99963.94;;;5.20;64.62
30021;BME280;16861;52.294;7.760;2023-04-26T04:04:21;99965.72;;;5.20;64.38
30021;BME280;16861;52.294;7.760;2023-04-26T04:06:48;99968.34;;;5.20;64.70
30021;BME280;16861;52.294;7.760;2023-04-26T04:09:15;99971.72;;;5.22;64.83
30021;BME280;16861;52.294;7.760;2023-04-26T04:11:41;99969.06;;;5.24;65.21
30021;BME280;16861;52.294;7.760;2023-04-26T04:14:08;99969.94;;;5.24;64.87
30021;BME280;16861;52.294;7.760;2023-04-26T04:16:35;99969.88;;;5.26;64.71
30021;BME280;16861;52.294;7.760;2023-04-26T04:19:01;99974.25;;;5.25;64.85
30021;BME280;16861;52.294;7.760;2023-04-26T04:21:28;99975.09;;;5.26;64.84
30021;BME280;16861;52.294;7.760;2023-04-26T04:23:55;99977.69;;;5.26;64.80
30021;BME280;16861;52.294;7.760;2023-04-26T04:26:21;99969.03;;;5.25;64.95
30021;BME280;16861;52.294;7.760;2023-04-26T04:28:48;99977.69;;;5.26;65.04
30021;BME280;16861;52.294;7.760;2023-04-26T04:31:14;99978.56;;;5.26;65.02
30021;BME280;16861;52.294;7.760;2023-04-26T04:33:41;99975.03;;;5.27;64.73
30021;BME280;16861;52.294;7.760;2023-04-26T04:36:07;99975.91;;;5.28;64.88
30021;BME280;16861;52.294;7.760;2023-04-26T04:38:34;99975.88;;;5.29;65.24
30021;BME280;16861;52.294;7.760;2023-04-26T04:41:01;99976.66;;;5.31;65.22
30021;BME280;16861;52.294;7.760;2023-04-26T04:43:27;99980.94;;;5.34;65.24
30021;BME280;16861;52.294;7.760;2023-04-26T04:45:54;99979.97;;;5.37;65.22
30021;BME280;16861;52.294;7.760;2023-04-26T04:48:21;99979.13;;;5.36;65.32
30021;BME280;16861;52.294;7.760;2023-04-26T04:50:48;99987.75;;;5.38;65.07
30021;BME280;16861;52.294;7.760;2023-04-26T04:53:14;99989.53;;;5.38;65.25
30021;BME280;16861;52.294;7.760;2023-04-26T04:55:41;99985.16;;;5.38;65.24
30021;BME280;16861;52.294;7.760;2023-04-26T04:58:08;99991.22;;;5.39;65.47
30021;BME280;16861;52.294;7.760;2023-04-26T05:00:34;99985.16;;;5.38;65.45
30021;BME280;16861;52.294;7.760;2023-04-26T05:03:03;99983.41;;;5.39;65.35
30021;BME280;16861;52.294;7.760;2023-04-26T05:05:30;99991.19;;;5.40;65.33
30021;BME280;16861;52.294;7.760;2023-04-26T05:07:56;99985.09;;;5.40;65.63
30021;BME280;16861;52.294;7.760;2023-04-26T05:10:23;99989.41;;;5.41;65.53
30021;BME280;16861;52.294;7.760;2023-04-26T05:12:49;99991.94;;;5.44;65.48
30021;BME280;16861;52.294;7.760;2023-04-26T05:15:16;99991.88;;;5.45;65.34
30021;BME280;16861;52.294;7.760;2023-04-26T05:17:42;99990.97;;;5.46;65.55
30021;BME280;16861;52.294;7.760;2023-04-26T05:20:09;99995.28;;;5.47;65.46
30021;BME280;16861;52.294;7.760;2023-04-26T05:22:36;99993.56;;;5.48;65.49
30021;BME280;16861;52.294;7.760;2023-04-26T05:25:05;100002.19;;;5.50;65.46
30021;BME280;16861;52.294;7.760;2023-04-26T05:27:33;99996.97;;;5.50;65.23
30021;BME280;16861;52.294;7.760;2023-04-26T05:29:59;100007.44;;;5.50;65.45
30021;BME280;16861;52.294;7.760;2023-04-26T05:32:26;100002.13;;;5.52;65.49
30021;BME280;16861;52.294;7.760;2023-04-26T05:34:53;100010.81;;;5.52;65.41
30021;BME280;16861;52.294;7.760;2023-04-26T05:37:19;100011.66;;;5.54;65.18
30021;BME280;16861;52.294;7.760;2023-04-26T05:39:46;100009.88;;;5.55;65.81
30021;BME280;16861;52.294;7.760;2023-04-26T05:42:12;100015.91;;;5.57;65.55
30021;BME280;16861;52.294;7.760;2023-04-26T05:44:41;100010.63;;;5.58;65.88
30021;BME280;16861;52.294;7.760;2023-04-26T05:47:09;100014.91;;;5.61;66.08
30021;BME280;16861;52.294;7.760;2023-04-26T05:49:36;100014.78;;;5.64;66.06
30021;BME280;16861;52.294;7.760;2023-04-26T05:52:02;100020.78;;;5.68;66.13
30021;BME280;16861;52.294;7.760;2023-04-26T05:54:29;100026.72;;;5.73;66.12
30021;BME280;16861;52.294;7.760;2023-04-26T05:56:55;100016.09;;;5.78;66.07
30021;BME280;16861;52.294;7.760;2023-04-26T05:59:24;100015.97;;;5.82;66.23
30021;BME280;16861;52.294;7.760;2023-04-26T06:01:50;100019.22;;;5.89;66.32
30021;BME280;16861;52.294;7.760;2023-04-26T06:04:17;100025.13;;;5.94;66.17
30021;BME280;16861;52.294;7.760;2023-04-26T06:06:44;100025.84;;;5.99;66.42
30021;BME280;16861;52.294;7.760;2023-04-26T06:09:10;100032.66;;;6.05;66.39
30021;BME280;16861;52.294;7.760;2023-04-26T06:11:37;100030.69;;;6.12;66.14
30021;BME280;16861;52.294;7.760;2023-04-26T06:14:03;100031.31;;;6.19;66.35
30021;BME280;16861;52.294;7.760;2023-04-26T06:16:30;100033.78;;;6.23;66.00
30021;BME280;16861;52.294;7.760;2023-04-26T06:18:56;100033.63;;;6.28;66.38
30021;BME280;16861;52.294;7.760;2023-04-26T06:21:23;100038.69;;;6.33;66.24
30021;BME280;16861;52.294;7.760;2023-04-26T06:23:49;100038.47;;;6.39;66.43
30021;BME280;16861;52.294;7.760;2023-04-26T06:26:16;100038.31;;;6.44;66.04
30021;BME280;16861;52.294;7.760;2023-04-26T06:28:43;100039.00;;;6.49;66.42
30021;BME280;16861;52.294;7.760;2023-04-26T06:31:09;100035.28;;;6.56;66.30
30021;BME280;16861;52.294;7.760;2023-04-26T06:33:36;100037.59;;;6.64;66.43
30021;BME280;16861;52.294;7.760;2023-04-26T06:36:02;100053.09;;;6.70;66.27
30021;BME280;16861;52.294;7.760;2023-04-26T06:38:29;100050.19;;;6.78;66.44
30021;BME280;16861;52.294;7.760;2023-04-26T06:40:55;100049.94;;;6.84;66.70
30021;BME280;16861;52.294;7.760;2023-04-26T06:43:22;100047.13;;;6.90;66.59
30021;BME280;16861;52.294;7.760;2023-04-26T06:45:48;100051.19;;;6.98;66.50
30021;BME280;16861;52.294;7.760;2023-04-26T06:48:15;100047.47;;;7.05;66.21
30021;BME280;16861;52.294;7.760;2023-04-26T06:50:41;100044.69;;;7.10;66.15
30021;BME280;16861;52.294;7.760;2023-04-26T06:53:08;100047.91;;;7.16;65.97
30021;BME280;16861;52.294;7.760;2023-04-26T06:55:34;100054.66;;;7.22;65.69
30021;BME280;16861;52.294;7.760;2023-04-26T06:58:01;100058.81;;;7.28;65.78
30021;BME280;16861;52.294;7.760;2023-04-26T07:00:28;100052.53;;;7.32;65.66
30021;BME280;16861;52.294;7.760;2023-04-26T07:02:55;100062.84;;;7.37;65.88
30021;BME280;16861;52.294;7.760;2023-04-26T07:05:22;100057.41;;;7.41;65.81
30021;BME280;16861;52.294;7.760;2023-04-26T07:07:49;100058.13;;;7.47;65.88
30021;BME280;16861;52.294;7.760;2023-04-26T07:10:16;100057.88;;;7.53;65.91
30021;BME280;16861;52.294;7.760;2023-04-26T07:12:43;100057.59;;;7.59;65.91
30021;BME280;16861;52.294;7.760;2023-04-26T07:15:10;100053.91;;;7.65;65.63
30021;BME280;16861;52.294;7.760;2023-04-26T07:17:36;100055.41;;;7.71;65.74
30021;BME280;16861;52.294;7.760;2023-04-26T07:20:03;100057.78;;;7.77;66.04
30021;BME280;16861;52.294;7.760;2023-04-26T07:22:31;100065.41;;;7.83;65.88
30021;BME280;16861;52.294;7.760;2023-04-26T07:24:57;100058.09;;;7.91;65.52
30021;BME280;16861;52.294;7.760;2023-04-26T07:27:23;100059.56;;;7.99;65.72
30021;BME280;16861;52.294;7.760;2023-04-26T07:29:53;100058.38;;;8.06;64.81
30021;BME280;16861;52.294;7.760;2023-04-26T07:32:21;100057.09;;;8.16;65.88
30021;BME280;16861;52.294;7.760;2023-04-26T07:34:47;100063.69;;;8.25;65.44
30021;BME280;16861;52.294;7.760;2023-04-26T07:37:14;100061.59;;;8.33;65.14
30021;BME280;16861;52.294;7.760;2023-04-26T07:40:03;100060.47;;;8.39;63.96
30021;BME280;16861;52.294;7.760;2023-04-26T07:42:52;100062.56;;;8.53;64.79
30021;BME280;16861;52.294;7.760;2023-04-26T07:45:18;100058.66;;;8.62;64.45
30021;BME280;16861;52.294;7.760;2023-04-26T07:47:45;100065.34;;;8.69;64.25
30021;BME280;16861;52.294;7.760;2023-04-26T07:50:11;100058.06;;;8.76;64.58
30021;BME280;16861;52.294;7.760;2023-04-26T07:52:38;100059.56;;;8.82;63.68
30021;BME280;16861;52.294;7.760;2023-04-26T07:55:05;100064.53;;;8.88;63.82
30021;BME280;16861;52.294;7.760;2023-04-26T07:57:32;100065.03;;;8.96;64.05
30021;BME280;16861;52.294;7.760;2023-04-26T07:59:58;100063.91;;;9.02;63.83
30021;BME280;16861;52.294;7.760;2023-04-26T08:02:24;100059.16;;;9.10;63.74
30021;BME280;16861;52.294;7.760;2023-04-26T08:05:09;100073.63;;;9.19;63.51
30021;BME280;16861;52.294;7.760;2023-04-26T08:07:39;100063.75;;;9.24;62.76
30021;BME280;16861;52.294;7.760;2023-04-26T08:10:07;100063.31;;;9.34;63.67
30021;BME280;16861;52.294;7.760;2023-04-26T08:12:35;100052.53;;;9.40;63.32
30021;BME280;16861;52.294;7.760;2023-04-26T08:15:03;100057.34;;;9.49;62.81
30021;BME280;16861;52.294;7.760;2023-04-26T08:17:30;100056.13;;;9.57;62.47
30021;BME280;16861;52.294;7.760;2023-04-26T08:19:58;100060.09;;;9.65;62.71
30021;BME280;16861;52.294;7.760;2023-04-26T08:22:24;100060.50;;;9.75;62.20
30021;BME280;16861;52.294;7.760;2023-04-26T08:24:53;100066.16;;;9.85;61.33
30021;BME280;16861;52.294;7.760;2023-04-26T08:27:21;100057.81;;;9.95;61.38
30021;BME280;16861;52.294;7.760;2023-04-26T08:29:48;100056.47;;;10.03;61.69
30021;BME280;16861;52.294;7.760;2023-04-26T08:32:14;100058.69;;;10.13;61.40
30021;BME280;16861;52.294;7.760;2023-04-26T08:34:41;100064.31;;;10.23;61.53
30021;BME280;16861;52.294;7.760;2023-04-26T08:37:08;100058.50;;;10.34;61.20
30021;BME280;16861;52.294;7.760;2023-04-26T08:39:34;100064.09;;;10.45;60.35
30021;BME280;16861;52.294;7.760;2023-04-26T08:42:21;100061.84;;;10.55;57.50
30021;BME280;16861;52.294;7.760;2023-04-26T08:44:53;100065.47;;;10.70;59.37
30021;BME280;16861;52.294;7.760;2023-04-26T08:50:04;100058.19;;;10.91;59.38
30021;BME280;16861;52.294;7.760;2023-04-26T08:52:34;100060.31;;;11.01;58.60
30021;BME280;16861;52.294;7.760;2023-04-26T08:55:01;100061.34;;;11.14;59.31
30021;BME280;16861;52.294;7.760;2023-04-26T08:57:31;100064.44;;;11.23;58.95
30021;BME280;16861;52.294;7.760;2023-04-26T09:00:01;100065.72;;;11.31;58.00
30021;BME280;16861;52.294;7.760;2023-04-26T09:02:31;100067.19;;;11.37;58.63
30021;BME280;16861;52.294;7.760;2023-04-26T09:04:58;100067.84;;;11.41;58.02
30021;BME280;16861;52.294;7.760;2023-04-26T09:07:35;100072.34;;;11.39;55.69
30021;BME280;16861;52.294;7.760;2023-04-26T09:10:05;100074.06;;;11.40;57.46
30021;BME280;16861;52.294;7.760;2023-04-26T09:12:31;100074.22;;;11.37;56.62
30021;BME280;16861;52.294;7.760;2023-04-26T09:14:58;100073.44;;;11.34;56.55
30021;BME280;16861;52.294;7.760;2023-04-26T09:17:30;100066.66;;;11.30;55.46
30021;BME280;16861;52.294;7.760;2023-04-26T09:19:57;100070.22;;;11.29;56.31
30021;BME280;16861;52.294;7.760;2023-04-26T09:22:35;100068.69;;;11.25;53.97
30021;BME280;16861;52.294;7.760;2023-04-26T09:25:03;100074.72;;;11.27;56.17
30021;BME280;16861;52.294;7.760;2023-04-26T09:27:38;100075.66;;;11.26;54.45
30021;BME280;16861;52.294;7.760;2023-04-26T09:30:10;100076.59;;;11.25;54.11
30021;BME280;16861;52.294;7.760;2023-04-26T09:37:53;100078.91;;;11.15;54.45
30021;BME280;16861;52.294;7.760;2023-04-26T09:40:29;100075.47;;;11.13;54.95
30021;BME280;16861;52.294;7.760;2023-04-26T09:43:00;100078.28;;;11.10;54.65
30021;BME280;16861;52.294;7.760;2023-04-26T09:45:28;100080.06;;;11.10;55.80
30021;BME280;16861;52.294;7.760;2023-04-26T09:48:12;100067.13;;;11.05;54.35
30021;BME280;16861;52.294;7.760;2023-04-26T09:50:39;100078.19;;;11.12;56.33
30021;BME280;16861;52.294;7.760;2023-04-26T09:53:06;100079.88;;;11.13;56.29
30021;BME280;16861;52.294;7.760;2023-04-26T09:55:33;100077.09;;;11.16;56.32
30021;BME280;16861;52.294;7.760;2023-04-26T09:58:11;100078.03;;;11.15;55.10
30021;BME280;16861;52.294;7.760;2023-04-26T10:00:37;100078.63;;;11.20;56.63
30021;BME280;16861;52.294;7.760;2023-04-26T10:03:07;100081.09;;;11.23;56.52
30021;BME280;16861;52.294;7.760;2023-04-26T10:05:35;100073.94;;;11.25;56.33
30021;BME280;16861;52.294;7.760;2023-04-26T10:08:02;100069.47;;;11.27;56.67
30021;BME280;16861;52.294;7.760;2023-04-26T10:10:29;100077.09;;;11.32;56.61
30021;BME280;16861;52.294;7.760;2023-04-26T10:12:57;100074.13;;;11.38;56.91
30021;BME280;16861;52.294;7.760;2023-04-26T10:15:23;100069.47;;;11.43;56.64
30021;BME280;16861;52.294;7.760;2023-04-26T10:17:50;100073.47;;;11.51;56.16
30021;BME280;16861;52.294;7.760;2023-04-26T10:20:19;100078.53;;;11.54;55.32
30021;BME280;16861;52.294;7.760;2023-04-26T10:22:52;100075.91;;;11.54;53.95
30021;BME280;16861;52.294;7.760;2023-04-26T10:25:20;100066.97;;;11.56;55.71
30021;BME280;16861;52.294;7.760;2023-04-26T10:27:47;100062.72;;;11.54;55.15
30021;BME280;16861;52.294;7.760;2023-04-26T10:30:15;100069.22;;;11.48;54.67
30021;BME280;16861;52.294;7.760;2023-04-26T10:40:36;100069.53;;;11.10;53.42
30021;BME280;16861;52.294;7.760;2023-04-26T10:45:38;100065.22;;;10.91;55.21
30021;BME280;16861;52.294;7.760;2023-04-26T10:48:14;100068.53;;;10.78;54.06
30021;BME280;16861;52.294;7.760;2023-04-26T10:51:08;100069.94;;;10.68;54.44
30021;BME280;16861;52.294;7.760;2023-04-26T10:59:09;100064.22;;;10.60;56.00
30021;BME280;16861;52.294;7.760;2023-04-26T11:01:40;100065.78;;;10.64;57.01
30021;BME280;16861;52.294;7.760;2023-04-26T11:04:08;100063.75;;;10.69;57.62
30021;BME280;16861;52.294;7.760;2023-04-26T11:06:54;100064.53;;;10.71;54.63
30021;BME280;16861;52.294;7.760;2023-04-26T11:09:35;100063.09;;;10.81;55.37
30021;BME280;16861;52.294;7.760;2023-04-26T11:12:03;100056.34;;;10.93;57.20
30021;BME280;16861;52.294;7.760;2023-04-26T11:14:32;100062.88;;;11.02;57.27
30021;BME280;16861;52.294;7.760;2023-04-26T11:17:03;100058.81;;;11.13;56.05
30021;BME280;16861;52.294;7.760;2023-04-26T11:19:31;100061.72;;;11.24;57.26
30021;BME280;16861;52.294;7.760;2023-04-26T11:21:59;100061.03;;;11.37;57.01
30021;BME280;16861;52.294;7.760;2023-04-26T11:24:27;100054.94;;;11.52;57.16
30021;BME280;16861;52.294;7.760;2023-04-26T11:26:55;100051.91;;;11.75;58.31
30021;BME280;16861;52.294;7.760;2023-04-26T11:29:24;100048.50;;;12.03;58.10
30021;BME280;16861;52.294;7.760;2023-04-26T11:31:55;100046.28;;;12.42;58.83
30021;BME280;16861;52.294;7.760;2023-04-26T11:34:34;100045.44;;;12.85;53.97
30021;BME280;16861;52.294;7.760;2023-04-26T11:37:02;100045.84;;;13.36;58.37
30021;BME280;16861;52.294;7.760;2023-04-26T11:39:31;100044.66;;;13.82;58.07
30021;BME280;16861;52.294;7.760;2023-04-26T11:42:07;100048.91;;;14.25;53.21
30021;BME280;16861;52.294;7.760;2023-04-26T11:44:34;100044.97;;;14.70;57.25
30021;BME280;16861;52.294;7.760;2023-04-26T11:47:01;100041.09;;;15.13;56.05
30021;BME280;16861;52.294;7.760;2023-04-26T11:49:32;100047.63;;;15.58;56.07
30021;BME280;16861;52.294;7.760;2023-04-26T11:51:58;100046.19;;;16.02;54.55
30021;BME280;16861;52.294;7.760;2023-04-26T11:54:29;100042.63;;;16.49;54.14
30021;BME280;16861;52.294;7.760;2023-04-26T11:57:00;100049.06;;;16.92;50.24
30021;BME280;16861;52.294;7.760;2023-04-26T11:59:29;100045.78;;;17.35;52.67
30021;BME280;16861;52.294;7.760;2023-04-26T12:01:56;100045.16;;;17.75;50.23
30021;BME280;16861;52.294;7.760;2023-04-26T12:04:27;100043.94;;;18.12;47.37
30021;BME280;16861;52.294;7.760;2023-04-26T12:06:57;100042.72;;;18.47;49.24
30021;BME280;16861;52.294;7.760;2023-04-26T12:09:28;100043.38;;;18.61;45.53
30021;BME280;16861;52.294;7.760;2023-04-26T12:11:59;100048.00;;;18.59;43.90
30021;BME280;16861;52.294;7.760;2023-04-26T12:14:37;100047.75;;;18.41;44.32
30021;BME280;16861;52.294;7.760;2023-04-26T12:17:05;100046.22;;;18.17;44.82
30021;BME280;16861;52.294;7.760;2023-04-26T12:19:36;100044.66;;;17.81;44.40
30021;BME280;16861;52.294;7.760;2023-04-26T12:22:06;100044.44;;;17.40;43.13
30021;BME280;16861;52.294;7.760;2023-04-26T12:24:33;100044.00;;;17.01;44.06
30021;BME280;16861;52.294;7.760;2023-04-26T12:27:03;100048.09;;;16.59;44.15
30021;BME280;16861;52.294;7.760;2023-04-26T12:29:32;100050.41;;;16.17;44.64
30021;BME280;16861;52.294;7.760;2023-04-26T12:31:59;100047.00;;;15.79;45.39
30021;BME280;16861;52.294;7.760;2023-04-26T12:34:25;100039.75;;;15.45;46.10
30021;BME280;16861;52.294;7.760;2023-04-26T12:36:52;100043.53;;;15.16;45.96
30021;BME280;16861;52.294;7.760;2023-04-26T12:39:18;100048.69;;;14.93;46.69
30021;BME280;16861;52.294;7.760;2023-04-26T12:41:45;100052.59;;;14.75;47.30
30021;BME280;16861;52.294;7.760;2023-04-26T12:44:11;100041.16;;;14.61;47.46
30021;BME280;16861;52.294;7.760;2023-04-26T12:46:39;100041.78;;;14.52;47.57
30021;BME280;16861;52.294;7.760;2023-04-26T12:49:06;100041.47;;;14.43;47.87
30021;BME280;16861;52.294;7.760;2023-04-26T12:51:33;100043.69;;;14.37;47.72
30021;BME280;16861;52.294;7.760;2023-04-26T12:53:59;100045.81;;;14.31;47.64
30021;BME280;16861;52.294;7.760;2023-04-26T12:56:26;100044.53;;;14.24;47.46
30021;BME280;16861;52.294;7.760;2023-04-26T12:58:54;100042.22;;;14.19;47.78
30021;BME280;16861;52.294;7.760;2023-04-26T13:01:20;100049.63;;;14.14;47.94
30021;BME280;16861;52.294;7.760;2023-04-26T13:03:47;100046.22;;;14.12;48.37
30021;BME280;16861;52.294;7.760;2023-04-26T13:06:14;100039.66;;;14.18;49.89
30021;BME280;16861;52.294;7.760;2023-04-26T13:08:44;100039.47;;;14.34;50.17
30021;BME280;16861;52.294;7.760;2023-04-26T13:11:10;100030.56;;;14.61;51.19
30021;BME280;16861;52.294;7.760;2023-04-26T13:13:37;100033.50;;;14.95;51.05
30021;BME280;16861;52.294;7.760;2023-04-26T13:16:09;100047.00;;;15.30;49.97
30021;BME280;16861;52.294;7.760;2023-04-26T13:18:37;100041.59;;;15.56;49.06
30021;BME280;16861;52.294;7.760;2023-04-26T13:21:04;100048.56;;;15.70;48.48
30021;BME280;16861;52.294;7.760;2023-04-26T13:23:30;100046.41;;;15.75;47.59
30021;BME280;16861;52.294;7.760;2023-04-26T13:25:57;100043.84;;;15.73;47.22
30021;BME280;16861;52.294;7.760;2023-04-26T13:28:23;100049.84;;;15.64;47.04